sensor_id;sensor_type;location;lat;lon;timestamp;pressure;altitude;pressure_sealevel;temperature;humidity
43701;BME280;58809;47.984;7.964;2023-04-07T00:02:08;97188.88;;;13.92;47.22
43701;BME280;58809;47.984;7.964;2023-04-07T00:05:10;97188.84;;;13.79;47.35
43701;BME280;58809;47.984;7.964;2023-04-07T00:08:11;97183.09;;;13.75;47.74
43701;BME280;58809;47.984;7.964;2023-04-07T00:11:13;97180.44;;;13.75;47.86
43701;BME280;58809;47.984;7.964;2023-04-07T00:14:14;97172.88;;;13.65;48.31
43701;BME280;58809;47.984;7.964;2023-04-07T00:17:16;97167.50;;;13.45;48.80
43701;BME280;58809;47.984;7.964;2023-04-07T00:20:17;97170.97;;;13.46;48.90
43701;BME280;58809;47.984;7.964;2023-04-07T00:23:19;97170.78;;;13.54;48.81
43701;BME280;58809;47.984;7.964;2023-04-07T00:26:21;97166.28;;;13.55;49.32
43701;BME280;58809;47.984;7.964;2023-04-07T00:29:22;97166.91;;;13.50;49.26
43701;BME280;58809;47.984;7.964;2023-04-07T00:32:24;97168.53;;;13.51;49.13
43701;BME280;58809;47.984;7.964;2023-04-07T00:35:26;97167.91;;;13.49;49.41
43701;BME280;58809;47.984;7.964;2023-04-07T00:38:27;97163.41;;;13.43;49.95
43701;BME280;58809;47.984;7.964;2023-04-07T00:41:29;97153.16;;;13.40;49.90
43701;BME280;58809;47.984;7.964;2023-04-07T00:44:31;97155.22;;;13.38;50.60
43701;BME280;58809;47.984;7.964;2023-04-07T00:47:32;97141.09;;;13.37;50.81
43701;BME280;58809;47.984;7.964;2023-04-07T00:50:34;97141.69;;;13.33;50.88
43701;BME280;58809;47.984;7.964;2023-04-07T00:53:35;97145.31;;;13.25;51.28
43701;BME280;58809;47.984;7.964;2023-04-07T00:56:37;97137.53;;;13.23;51.42
43701;BME280;58809;47.984;7.964;2023-04-07T00:59:39;97127.34;;;13.27;51.15
43701;BME280;58809;47.984;7.964;2023-04-07T01:02:45;97132.22;;;13.23;51.59
43701;BME280;58809;47.984;7.964;2023-04-07T01:05:53;97129.59;;;13.30;51.59
43701;BME280;58809;47.984;7.964;2023-04-07T01:12:45;97121.03;;;13.35;51.38
43701;BME280;58809;47.984;7.964;2023-04-07T01:15:51;97113.50;;;13.38;51.75
43701;BME280;58809;47.984;7.964;2023-04-07T01:19:03;97122.91;;;13.41;51.64
43701;BME280;58809;47.984;7.964;2023-04-07T01:22:17;97117.59;;;13.41;51.38
43701;BME280;58809;47.984;7.964;2023-04-07T01:31:45;97117.19;;;13.44;52.05
43701;BME280;58809;47.984;7.964;2023-04-07T01:34:49;97118.84;;;13.45;52.06
43701;BME280;58809;47.984;7.964;2023-04-07T01:37:52;97114.31;;;13.39;51.80
43701;BME280;58809;47.984;7.964;2023-04-07T01:40:55;97106.34;;;13.39;52.09
43701;BME280;58809;47.984;7.964;2023-04-07T01:44:00;97106.34;;;13.39;52.10
43701;BME280;58809;47.984;7.964;2023-04-07T01:47:03;97100.22;;;13.45;52.05
43701;BME280;58809;47.984;7.964;2023-04-07T01:50:06;97099.63;;;13.43;51.78
43701;BME280;58809;47.984;7.964;2023-04-07T01:53:10;97097.38;;;13.46;51.58
43701;BME280;58809;47.984;7.964;2023-04-07T01:56:12;97088.97;;;13.50;51.85
43701;BME280;58809;47.984;7.964;2023-04-07T01:59:14;97086.75;;;13.46;51.74
43701;BME280;58809;47.984;7.964;2023-04-07T02:02:16;97082.81;;;13.42;51.75
43701;BME280;58809;47.984;7.964;2023-04-07T02:05:19;97082.00;;;13.42;52.11
43701;BME280;58809;47.984;7.964;2023-04-07T02:08:23;97081.19;;;13.35;51.82
43701;BME280;58809;47.984;7.964;2023-04-07T02:11:28;97051.09;;;13.27;51.81
43701;BME280;58809;47.984;7.964;2023-04-07T02:14:34;97062.31;;;13.29;52.17
43701;BME280;58809;47.984;7.964;2023-04-07T02:17:43;97057.00;;;13.29;51.98
43701;BME280;58809;47.984;7.964;2023-04-07T02:20:47;97049.28;;;13.28;51.98
43701;BME280;58809;47.984;7.964;2023-04-07T02:23:50;97054.19;;;13.31;51.81
43701;BME280;58809;47.984;7.964;2023-04-07T02:26:52;97046.19;;;13.24;51.93
43701;BME280;58809;47.984;7.964;2023-04-07T02:29:53;97040.66;;;13.06;52.21
43701;BME280;58809;47.984;7.964;2023-04-07T02:32:56;97033.66;;;12.98;52.89
43701;BME280;58809;47.984;7.964;2023-04-07T02:35:58;97026.31;;;12.94;52.96
43701;BME280;58809;47.984;7.964;2023-04-07T02:39:01;97021.00;;;12.94;52.49
43701;BME280;58809;47.984;7.964;2023-04-07T02:42:04;97019.34;;;12.93;52.88
43701;BME280;58809;47.984;7.964;2023-04-07T02:45:06;97023.66;;;12.94;52.94
43701;BME280;58809;47.984;7.964;2023-04-07T02:48:10;97024.66;;;12.93;52.85
43701;BME280;58809;47.984;7.964;2023-04-07T02:51:12;97027.09;;;12.87;53.03
43701;BME280;58809;47.984;7.964;2023-04-07T02:54:13;97025.22;;;12.81;53.29
43701;BME280;58809;47.984;7.964;2023-04-07T02:57:15;97025.63;;;12.78;53.52
43701;BME280;58809;47.984;7.964;2023-04-07T03:00:17;97027.00;;;12.61;53.35
43701;BME280;58809;47.984;7.964;2023-04-07T03:03:29;97025.69;;;12.43;53.97
43701;BME280;58809;47.984;7.964;2023-04-07T03:06:41;97033.78;;;12.28;54.21
43701;BME280;58809;47.984;7.964;2023-04-07T03:09:48;97029.22;;;12.16;54.36
43701;BME280;58809;47.984;7.964;2023-04-07T03:12:51;97022.06;;;12.09;54.47
43701;BME280;58809;47.984;7.964;2023-04-07T03:15:54;97030.03;;;12.16;54.52
43701;BME280;58809;47.984;7.964;2023-04-07T03:18:55;97025.53;;;12.10;54.63
43701;BME280;58809;47.984;7.964;2023-04-07T03:21:57;97025.53;;;12.10;54.26
43701;BME280;58809;47.984;7.964;2023-04-07T03:24:58;97027.91;;;11.98;54.80
43701;BME280;58809;47.984;7.964;2023-04-07T03:28:01;97035.50;;;12.08;54.87
43701;BME280;58809;47.984;7.964;2023-04-07T03:31:06;97031.25;;;12.13;54.95
43701;BME280;58809;47.984;7.964;2023-04-07T03:34:08;97032.94;;;12.21;54.13
43701;BME280;58809;47.984;7.964;2023-04-07T03:37:10;97032.72;;;12.23;54.74
43701;BME280;58809;47.984;7.964;2023-04-07T03:40:11;97017.00;;;12.15;54.23
43701;BME280;58809;47.984;7.964;2023-04-07T03:43:14;97017.00;;;12.15;54.94
43701;BME280;58809;47.984;7.964;2023-04-07T03:46:19;97005.91;;;12.04;54.72
43701;BME280;58809;47.984;7.964;2023-04-07T03:49:21;97000.53;;;11.91;54.72
43701;BME280;58809;47.984;7.964;2023-04-07T03:52:24;97002.38;;;11.97;54.91
43701;BME280;58809;47.984;7.964;2023-04-07T03:55:33;96999.34;;;12.00;54.91
43701;BME280;58809;47.984;7.964;2023-04-07T03:58:42;97001.81;;;12.02;54.96
43701;BME280;58809;47.984;7.964;2023-04-07T04:01:49;97002.16;;;11.92;55.20
43701;BME280;58809;47.984;7.964;2023-04-07T04:04:51;96991.53;;;11.92;55.54
43701;BME280;58809;47.984;7.964;2023-04-07T04:07:55;96990.78;;;11.98;54.83
43701;BME280;58809;47.984;7.964;2023-04-07T04:10:57;96995.09;;;12.06;54.76
43701;BME280;58809;47.984;7.964;2023-04-07T04:14:04;96985.94;;;12.08;54.55
43701;BME280;58809;47.984;7.964;2023-04-07T04:17:09;96981.66;;;12.07;54.51
43701;BME280;58809;47.984;7.964;2023-04-07T04:20:15;96973.06;;;12.05;55.11
43701;BME280;58809;47.984;7.964;2023-04-07T04:23:21;96973.94;;;12.12;54.71
43701;BME280;58809;47.984;7.964;2023-04-07T04:26:26;96968.25;;;12.22;54.50
43701;BME280;58809;47.984;7.964;2023-04-07T04:29:34;96970.28;;;12.20;54.29
43701;BME280;58809;47.984;7.964;2023-04-07T04:32:39;96970.69;;;12.17;54.59
43701;BME280;58809;47.984;7.964;2023-04-07T04:35:44;96973.53;;;12.16;54.83
43701;BME280;58809;47.984;7.964;2023-04-07T04:38:49;96960.25;;;12.16;54.47
43701;BME280;58809;47.984;7.964;2023-04-07T04:41:53;96972.03;;;12.06;54.98
43701;BME280;58809;47.984;7.964;2023-04-07T04:44:58;96964.47;;;12.03;54.88
43701;BME280;58809;47.984;7.964;2023-04-07T04:48:00;96958.59;;;12.08;54.48
43701;BME280;58809;47.984;7.964;2023-04-07T04:51:02;96962.69;;;12.10;54.78
43701;BME280;58809;47.984;7.964;2023-04-07T04:54:04;96958.59;;;12.08;54.98
43701;BME280;58809;47.984;7.964;2023-04-07T04:57:07;96963.03;;;12.01;54.95
43701;BME280;58809;47.984;7.964;2023-04-07T05:00:11;96972.00;;;12.00;55.34
43701;BME280;58809;47.984;7.964;2023-04-07T05:03:15;96968.31;;;11.94;55.19
43701;BME280;58809;47.984;7.964;2023-04-07T05:06:22;96965.88;;;11.92;55.76
43701;BME280;58809;47.984;7.964;2023-04-07T05:09:25;96966.69;;;12.00;55.59
43701;BME280;58809;47.984;7.964;2023-04-07T05:12:27;96966.13;;;12.04;55.33
43701;BME280;58809;47.984;7.964;2023-04-07T05:15:34;96973.50;;;12.09;55.37
43701;BME280;58809;47.984;7.964;2023-04-07T05:18:37;96982.09;;;12.11;55.77
43701;BME280;58809;47.984;7.964;2023-04-07T05:21:39;96980.84;;;12.13;55.63
43701;BME280;58809;47.984;7.964;2023-04-07T05:24:41;96974.13;;;12.11;55.77
43701;BME280;58809;47.984;7.964;2023-04-07T05:27:42;96973.94;;;12.12;55.40
43701;BME280;58809;47.984;7.964;2023-04-07T05:30:48;96973.53;;;12.16;55.30
43701;BME280;58809;47.984;7.964;2023-04-07T05:33:50;96971.28;;;12.19;55.53
43701;BME280;58809;47.984;7.964;2023-04-07T05:36:54;96969.31;;;12.28;56.08
43701;BME280;58809;47.984;7.964;2023-04-07T05:39:56;96976.03;;;12.24;55.65
43701;BME280;58809;47.984;7.964;2023-04-07T05:42:57;96973.13;;;12.19;55.54
43701;BME280;58809;47.984;7.964;2023-04-07T05:46:04;96976.78;;;12.18;55.90
43701;BME280;58809;47.984;7.964;2023-04-07T05:49:08;96969.06;;;12.23;55.93
43701;BME280;58809;47.984;7.964;2023-04-07T05:52:25;96979.53;;;12.31;55.25
43701;BME280;58809;47.984;7.964;2023-04-07T05:55:37;96968.13;;;12.37;55.76
43701;BME280;58809;47.984;7.964;2023-04-07T05:58:42;96968.97;;;12.44;55.33
43701;BME280;58809;47.984;7.964;2023-04-07T06:01:44;96964.06;;;12.48;55.28
43701;BME280;58809;47.984;7.964;2023-04-07T06:04:47;96975.13;;;12.51;55.44
43701;BME280;58809;47.984;7.964;2023-04-07T06:07:51;96969.19;;;12.56;55.92
43701;BME280;58809;47.984;7.964;2023-04-07T06:10:52;96969.03;;;12.64;55.99
43701;BME280;58809;47.984;7.964;2023-04-07T06:13:56;96964.56;;;12.71;55.83
43701;BME280;58809;47.984;7.964;2023-04-07T06:16:57;96972.31;;;12.73;55.45
43701;BME280;58809;47.984;7.964;2023-04-07T06:19:59;96967.22;;;12.78;55.34
43701;BME280;58809;47.984;7.964;2023-04-07T06:23:00;96973.56;;;12.90;55.34
43701;BME280;58809;47.984;7.964;2023-04-07T06:26:02;96969.13;;;13.04;54.96
43701;BME280;58809;47.984;7.964;2023-04-07T06:29:04;96973.03;;;13.28;54.71
43701;BME280;58809;47.984;7.964;2023-04-07T06:32:06;96968.16;;;13.52;54.12
43701;BME280;58809;47.984;7.964;2023-04-07T06:35:09;96977.94;;;14.50;51.78
43701;BME280;58809;47.984;7.964;2023-04-07T06:38:11;96981.41;;;13.79;53.18
43701;BME280;58809;47.984;7.964;2023-04-07T06:41:13;96982.25;;;13.79;53.03
43701;BME280;58809;47.984;7.964;2023-04-07T06:44:17;96983.88;;;13.74;52.91
43701;BME280;58809;47.984;7.964;2023-04-07T06:47:18;96983.25;;;13.85;52.97
43701;BME280;58809;47.984;7.964;2023-04-07T06:50:20;96984.88;;;13.93;52.63
43701;BME280;58809;47.984;7.964;2023-04-07T06:53:22;96994.88;;;13.97;52.06
43701;BME280;58809;47.984;7.964;2023-04-07T06:56:24;96991.19;;;14.05;51.66
43701;BME280;58809;47.984;7.964;2023-04-07T06:59:26;97000.09;;;14.37;50.88
43701;BME280;58809;47.984;7.964;2023-04-07T07:02:27;96998.94;;;14.13;51.76
43701;BME280;58809;47.984;7.964;2023-04-07T07:05:29;96996.69;;;14.17;51.98
43701;BME280;58809;47.984;7.964;2023-04-07T07:08:31;97011.78;;;14.95;50.40
43701;BME280;58809;47.984;7.964;2023-04-07T07:11:33;97005.84;;;14.93;50.49
43701;BME280;58809;47.984;7.964;2023-04-07T07:14:34;97006.34;;;15.08;50.29
43701;BME280;58809;47.984;7.964;2023-04-07T07:17:36;97007.41;;;15.32;49.90
43701;BME280;58809;47.984;7.964;2023-04-07T07:20:38;97014.53;;;15.38;49.53
43701;BME280;58809;47.984;7.964;2023-04-07T07:23:39;97015.84;;;15.61;49.14
43701;BME280;58809;47.984;7.964;2023-04-07T07:26:41;97018.59;;;15.73;48.92
43701;BME280;58809;47.984;7.964;2023-04-07T07:29:44;97013.84;;;15.82;47.85
43701;BME280;58809;47.984;7.964;2023-04-07T07:32:46;97025.63;;;15.67;47.64
43701;BME280;58809;47.984;7.964;2023-04-07T07:35:48;97013.47;;;15.71;47.10
43701;BME280;58809;47.984;7.964;2023-04-07T07:38:50;97020.81;;;15.51;47.19
43701;BME280;58809;47.984;7.964;2023-04-07T07:41:51;97017.34;;;15.50;47.00
43701;BME280;58809;47.984;7.964;2023-04-07T07:44:53;97022.91;;;15.49;46.94
43701;BME280;58809;47.984;7.964;2023-04-07T07:47:54;97022.94;;;15.67;46.57
43701;BME280;58809;47.984;7.964;2023-04-07T07:50:56;97027.50;;;15.92;46.22
43701;BME280;58809;47.984;7.964;2023-04-07T07:53:58;97029.22;;;15.86;46.22
43701;BME280;58809;47.984;7.964;2023-04-07T07:56:59;97032.78;;;15.73;46.53
43701;BME280;58809;47.984;7.964;2023-04-07T08:00:01;97034.81;;;15.78;46.48
43701;BME280;58809;47.984;7.964;2023-04-07T08:03:13;97043.47;;;15.67;46.35
43701;BME280;58809;47.984;7.964;2023-04-07T08:06:15;97047.16;;;15.66;46.51
43701;BME280;58809;47.984;7.964;2023-04-07T08:09:17;97051.06;;;15.70;46.39
43701;BME280;58809;47.984;7.964;2023-04-07T08:12:20;97059.50;;;15.67;46.67
43701;BME280;58809;47.984;7.964;2023-04-07T08:15:22;97054.13;;;15.42;46.97
43701;BME280;58809;47.984;7.964;2023-04-07T08:18:24;97053.75;;;14.99;47.61
43701;BME280;58809;47.984;7.964;2023-04-07T08:21:25;97055.63;;;14.92;48.02
43701;BME280;58809;47.984;7.964;2023-04-07T08:24:28;97059.88;;;15.00;47.93
43701;BME280;58809;47.984;7.964;2023-04-07T08:27:29;97071.31;;;15.14;47.74
43701;BME280;58809;47.984;7.964;2023-04-07T08:30:31;97064.47;;;15.31;47.42
43701;BME280;58809;47.984;7.964;2023-04-07T08:33:32;97068.72;;;15.00;48.10
43701;BME280;58809;47.984;7.964;2023-04-07T08:36:34;97067.81;;;14.61;48.82
43701;BME280;58809;47.984;7.964;2023-04-07T08:39:35;97075.84;;;14.48;49.48
43701;BME280;58809;47.984;7.964;2023-04-07T08:42:41;97079.50;;;14.54;49.51
43701;BME280;58809;47.984;7.964;2023-04-07T08:45:45;97085.22;;;14.71;49.54
43701;BME280;58809;47.984;7.964;2023-04-07T08:48:50;97090.88;;;14.94;49.40
43701;BME280;58809;47.984;7.964;2023-04-07T08:51:53;97092.41;;;15.15;49.22
43701;BME280;58809;47.984;7.964;2023-04-07T08:54:55;97090.34;;;15.17;49.25
43701;BME280;58809;47.984;7.964;2023-04-07T08:57:57;97092.22;;;15.17;49.34
43701;BME280;58809;47.984;7.964;2023-04-07T09:01:04;97108.88;;;14.99;49.79
43701;BME280;58809;47.984;7.964;2023-04-07T09:04:07;97098.47;;;14.91;50.33
43701;BME280;58809;47.984;7.964;2023-04-07T09:07:10;97108.91;;;14.92;50.35
43701;BME280;58809;47.984;7.964;2023-04-07T09:10:11;97104.03;;;14.82;50.88
43701;BME280;58809;47.984;7.964;2023-04-07T09:13:13;97098.50;;;14.77;51.06
43701;BME280;58809;47.984;7.964;2023-04-07T09:16:15;97113.44;;;14.85;51.25
43701;BME280;58809;47.984;7.964;2023-04-07T09:19:16;97110.63;;;14.73;51.52
43701;BME280;58809;47.984;7.964;2023-04-07T09:22:53;97107.75;;;14.68;52.47
43701;BME280;58809;47.984;7.964;2023-04-07T09:25:55;97102.56;;;14.93;52.10
43701;BME280;58809;47.984;7.964;2023-04-07T09:28:58;97113.13;;;15.13;51.73
43701;BME280;58809;47.984;7.964;2023-04-07T09:32:00;97111.38;;;15.39;51.79
43701;BME280;58809;47.984;7.964;2023-04-07T09:35:01;97114.72;;;15.91;50.85
43701;BME280;58809;47.984;7.964;2023-04-07T09:38:08;97121.16;;;15.84;51.35
43701;BME280;58809;47.984;7.964;2023-04-07T09:41:11;97116.59;;;15.91;51.16
43701;BME280;58809;47.984;7.964;2023-04-07T09:44:13;97121.97;;;15.84;51.58
43701;BME280;58809;47.984;7.964;2023-04-07T09:47:15;97123.28;;;16.00;51.48
43701;BME280;58809;47.984;7.964;2023-04-07T09:50:35;97131.91;;;15.70;51.86
43701;BME280;58809;47.984;7.964;2023-04-07T09:53:48;97127.25;;;15.91;51.77
43701;BME280;58809;47.984;7.964;2023-04-07T09:56:50;97122.03;;;15.77;51.51
43701;BME280;58809;47.984;7.964;2023-04-07T09:59:52;97120.16;;;15.78;51.79
43701;BME280;58809;47.984;7.964;2023-04-07T10:02:56;97121.84;;;15.66;52.21
43701;BME280;58809;47.984;7.964;2023-04-07T10:06:01;97125.09;;;15.43;52.77
43701;BME280;58809;47.984;7.964;2023-04-07T10:09:03;97118.50;;;15.45;52.41
43701;BME280;58809;47.984;7.964;2023-04-07T10:12:05;97126.31;;;15.40;52.64
43701;BME280;58809;47.984;7.964;2023-04-07T10:15:07;97121.31;;;15.18;52.92
43701;BME280;58809;47.984;7.964;2023-04-07T10:18:09;97130.06;;;15.32;52.87
43701;BME280;58809;47.984;7.964;2023-04-07T10:21:11;97132.88;;;15.44;52.84
43701;BME280;58809;47.984;7.964;2023-04-07T10:27:44;97137.84;;;15.66;52.34
43701;BME280;58809;47.984;7.964;2023-04-07T10:30:52;97135.97;;;15.73;52.58
43701;BME280;58809;47.984;7.964;2023-04-07T10:33:54;97124.91;;;15.76;52.37
43701;BME280;58809;47.984;7.964;2023-04-07T10:37:12;97141.78;;;15.63;52.39
43701;BME280;58809;47.984;7.964;2023-04-07T10:43:39;97138.25;;;15.76;51.96
43701;BME280;58809;47.984;7.964;2023-04-07T10:53:13;97145.22;;;15.70;52.51
43701;BME280;58809;47.984;7.964;2023-04-07T10:56:15;97151.97;;;15.73;52.11
43701;BME280;58809;47.984;7.964;2023-04-07T10:59:17;97150.16;;;15.35;52.10
43701;BME280;58809;47.984;7.964;2023-04-07T11:05:24;97151.28;;;15.07;52.69
43701;BME280;58809;47.984;7.964;2023-04-07T11:08:40;97152.34;;;14.99;52.95
43701;BME280;58809;47.984;7.964;2023-04-07T11:11:42;97157.47;;;15.01;52.87
43701;BME280;58809;47.984;7.964;2023-04-07T11:14:45;97142.72;;;14.98;52.97
43701;BME280;58809;47.984;7.964;2023-04-07T11:18:08;97154.66;;;14.82;53.24
43701;BME280;58809;47.984;7.964;2023-04-07T11:21:10;97158.59;;;14.00;54.47
43701;BME280;58809;47.984;7.964;2023-04-07T11:24:33;97157.34;;;13.89;55.17
43701;BME280;58809;47.984;7.964;2023-04-07T11:27:35;97154.06;;;14.14;54.71
43701;BME280;58809;47.984;7.964;2023-04-07T11:30:37;97153.69;;;14.23;54.43
43701;BME280;58809;47.984;7.964;2023-04-07T11:33:39;97151.44;;;14.00;54.84
43701;BME280;58809;47.984;7.964;2023-04-07T11:36:41;97153.06;;;13.95;55.01
43701;BME280;58809;47.984;7.964;2023-04-07T11:39:42;97168.00;;;14.16;54.83
43701;BME280;58809;47.984;7.964;2023-04-07T11:42:46;97168.81;;;14.23;54.88
43701;BME280;58809;47.984;7.964;2023-04-07T11:49:13;97168.19;;;14.48;54.73
43701;BME280;58809;47.984;7.964;2023-04-07T11:52:15;97162.69;;;14.62;54.05
43701;BME280;58809;47.984;7.964;2023-04-07T11:55:20;97175.09;;;14.95;53.78
43701;BME280;58809;47.984;7.964;2023-04-07T11:58:23;97172.72;;;15.26;53.06
43701;BME280;58809;47.984;7.964;2023-04-07T12:01:37;97174.28;;;14.95;53.20
43701;BME280;58809;47.984;7.964;2023-04-07T12:04:54;97167.56;;;14.86;53.63
43701;BME280;58809;47.984;7.964;2023-04-07T12:07:57;97175.97;;;14.82;53.23
43701;BME280;58809;47.984;7.964;2023-04-07T12:11:02;97176.19;;;14.48;53.59
43701;BME280;58809;47.984;7.964;2023-04-07T12:14:04;97178.25;;;14.39;53.81
43701;BME280;58809;47.984;7.964;2023-04-07T12:17:19;97182.34;;;14.35;54.31
43701;BME280;58809;47.984;7.964;2023-04-07T12:20:20;97170.03;;;14.34;54.13
43701;BME280;58809;47.984;7.964;2023-04-07T12:23:22;97181.13;;;14.31;54.17
43701;BME280;58809;47.984;7.964;2023-04-07T12:26:23;97178.22;;;14.52;54.19
43701;BME280;58809;47.984;7.964;2023-04-07T12:29:25;97188.47;;;14.55;54.39
43701;BME280;58809;47.984;7.964;2023-04-07T12:32:27;97182.75;;;14.72;54.01
43701;BME280;58809;47.984;7.964;2023-04-07T12:35:29;97182.84;;;15.04;53.58
43701;BME280;58809;47.984;7.964;2023-04-07T12:38:31;97180.28;;;14.77;53.76
43701;BME280;58809;47.984;7.964;2023-04-07T12:41:32;97184.19;;;14.48;54.01
43701;BME280;58809;47.984;7.964;2023-04-07T12:44:34;97185.81;;;14.22;54.64
43701;BME280;58809;47.984;7.964;2023-04-07T12:47:36;97181.53;;;14.14;55.03
43701;BME280;58809;47.984;7.964;2023-04-07T12:50:37;97185.44;;;14.25;55.08
43701;BME280;58809;47.984;7.964;2023-04-07T12:53:39;97182.72;;;14.45;54.92
43701;BME280;58809;47.984;7.964;2023-04-07T12:56:40;97183.53;;;14.52;54.75
43701;BME280;58809;47.984;7.964;2023-04-07T12:59:42;97181.31;;;14.42;54.65
43701;BME280;58809;47.984;7.964;2023-04-07T13:02:44;97187.66;;;14.48;54.41
43701;BME280;58809;47.984;7.964;2023-04-07T13:05:45;97183.56;;;14.59;54.07
43701;BME280;58809;47.984;7.964;2023-04-07T13:08:47;97186.03;;;14.60;54.23
43701;BME280;58809;47.984;7.964;2023-04-07T13:11:48;97183.97;;;14.62;54.78
43701;BME280;58809;47.984;7.964;2023-04-07T13:14:50;97185.81;;;14.75;54.59
43701;BME280;58809;47.984;7.964;2023-04-07T13:18:00;97183.56;;;14.59;54.48
43701;BME280;58809;47.984;7.964;2023-04-07T13:21:02;97183.53;;;14.79;54.76
43701;BME280;58809;47.984;7.964;2023-04-07T13:24:07;97187.97;;;15.05;54.15
43701;BME280;58809;47.984;7.964;2023-04-07T13:27:08;97189.25;;;14.96;53.88
43701;BME280;58809;47.984;7.964;2023-04-07T13:30:12;97179.03;;;14.79;54.30
43701;BME280;58809;47.984;7.964;2023-04-07T13:33:13;97187.22;;;14.85;54.64
43701;BME280;58809;47.984;7.964;2023-04-07T13:36:15;97183.94;;;14.82;55.06
43701;BME280;58809;47.984;7.964;2023-04-07T13:39:16;97183.91;;;14.96;54.93
43701;BME280;58809;47.984;7.964;2023-04-07T13:42:18;97184.94;;;14.95;54.64
43701;BME280;58809;47.984;7.964;2023-04-07T13:45:21;97176.66;;;15.16;54.17
43701;BME280;58809;47.984;7.964;2023-04-07T13:48:22;97185.09;;;15.58;53.86
43701;BME280;58809;47.984;7.964;2023-04-07T13:51:24;97180.31;;;15.67;53.07
43701;BME280;58809;47.984;7.964;2023-04-07T13:54:25;97182.47;;;15.52;53.54
43701;BME280;58809;47.984;7.964;2023-04-07T13:57:27;97179.34;;;15.55;53.15
43701;BME280;58809;47.984;7.964;2023-04-07T14:00:28;97187.09;;;15.70;52.86
43701;BME280;58809;47.984;7.964;2023-04-07T14:03:30;97177.34;;;15.89;52.65
43701;BME280;58809;47.984;7.964;2023-04-07T14:06:32;97182.44;;;15.97;52.05
43701;BME280;58809;47.984;7.964;2023-04-07T14:09:34;97173.13;;;16.31;51.60
43701;BME280;58809;47.984;7.964;2023-04-07T14:12:35;97179.66;;;16.86;50.86
43701;BME280;58809;47.984;7.964;2023-04-07T14:15:37;97183.66;;;17.13;50.51
43701;BME280;58809;47.984;7.964;2023-04-07T14:18:38;97174.09;;;17.73;49.36
43701;BME280;58809;47.984;7.964;2023-04-07T14:21:40;97182.63;;;17.63;49.01
43701;BME280;58809;47.984;7.964;2023-04-07T14:24:41;97175.44;;;17.45;49.50
43701;BME280;58809;47.984;7.964;2023-04-07T14:27:43;97179.84;;;17.88;48.99
43701;BME280;58809;47.984;7.964;2023-04-07T14:30:45;97169.75;;;17.72;49.19
43701;BME280;58809;47.984;7.964;2023-04-07T14:33:48;97175.50;;;17.08;50.11
43701;BME280;58809;47.984;7.964;2023-04-07T14:36:56;97176.63;;;16.32;51.15
43701;BME280;58809;47.984;7.964;2023-04-07T14:39:59;97172.50;;;15.79;51.98
43701;BME280;58809;47.984;7.964;2023-04-07T14:43:03;97166.00;;;15.62;52.40
43701;BME280;58809;47.984;7.964;2023-04-07T14:46:08;97175.69;;;15.49;52.91
43701;BME280;58809;47.984;7.964;2023-04-07T14:49:10;97169.34;;;15.50;52.92
43701;BME280;58809;47.984;7.964;2023-04-07T14:52:13;97163.59;;;15.53;52.77
43701;BME280;58809;47.984;7.964;2023-04-07T14:55:15;97161.16;;;15.45;52.90
43701;BME280;58809;47.984;7.964;2023-04-07T14:58:16;97160.97;;;15.40;52.69
43701;BME280;58809;47.984;7.964;2023-04-07T15:01:18;97169.97;;;15.46;52.77
43701;BME280;58809;47.984;7.964;2023-04-07T15:04:19;97168.78;;;15.42;52.64
43701;BME280;58809;47.984;7.964;2023-04-07T15:07:21;97169.41;;;15.37;52.90
43701;BME280;58809;47.984;7.964;2023-04-07T15:10:23;97170.47;;;15.29;52.53
43701;BME280;58809;47.984;7.964;2023-04-07T15:13:24;97172.28;;;15.35;52.84
43701;BME280;58809;47.984;7.964;2023-04-07T15:16:26;97176.56;;;15.43;52.34
43701;BME280;58809;47.984;7.964;2023-04-07T15:19:28;97176.75;;;15.48;52.32
43701;BME280;58809;47.984;7.964;2023-04-07T15:22:30;97178.34;;;15.56;52.14
43701;BME280;58809;47.984;7.964;2023-04-07T15:25:31;97181.63;;;15.51;51.92
43701;BME280;58809;47.984;7.964;2023-04-07T15:28:33;97188.03;;;15.44;52.31
43701;BME280;58809;47.984;7.964;2023-04-07T15:31:35;97180.91;;;15.37;52.36
43701;BME280;58809;47.984;7.964;2023-04-07T15:34:36;97175.16;;;15.40;52.31
43701;BME280;58809;47.984;7.964;2023-04-07T15:37:38;97181.03;;;15.49;51.83
43701;BME280;58809;47.984;7.964;2023-04-07T15:40:40;97180.50;;;15.34;51.74
43701;BME280;58809;47.984;7.964;2023-04-07T15:43:42;97185.25;;;15.25;52.29
43701;BME280;58809;47.984;7.964;2023-04-07T15:46:43;97189.38;;;15.21;52.49
43701;BME280;58809;47.984;7.964;2023-04-07T15:49:45;97187.91;;;15.32;52.45
43701;BME280;58809;47.984;7.964;2023-04-07T15:52:46;97188.44;;;15.47;51.91
43701;BME280;58809;47.984;7.964;2023-04-07T15:55:48;97193.19;;;15.38;52.35
43701;BME280;58809;47.984;7.964;2023-04-07T15:58:49;97190.44;;;15.13;52.62
43701;BME280;58809;47.984;7.964;2023-04-07T16:01:52;97191.44;;;15.12;52.99
43701;BME280;58809;47.984;7.964;2023-04-07T16:04:53;97193.28;;;15.12;52.79
43701;BME280;58809;47.984;7.964;2023-04-07T16:07:55;97201.69;;;15.15;53.05
43701;BME280;58809;47.984;7.964;2023-04-07T16:10:56;97208.00;;;15.28;52.80
43701;BME280;58809;47.984;7.964;2023-04-07T16:13:58;97210.50;;;15.23;53.00
43701;BME280;58809;47.984;7.964;2023-04-07T16:16:59;97213.31;;;15.34;52.70
43701;BME280;58809;47.984;7.964;2023-04-07T16:20:01;97214.28;;;15.53;52.61
43701;BME280;58809;47.984;7.964;2023-04-07T16:23:04;97221.69;;;15.45;52.57
43701;BME280;58809;47.984;7.964;2023-04-07T16:26:05;97219.34;;;15.62;52.69
43701;BME280;58809;47.984;7.964;2023-04-07T16:29:07;97226.03;;;15.84;52.24
43701;BME280;58809;47.984;7.964;2023-04-07T16:32:08;97232.06;;;16.87;50.81
43701;BME280;58809;47.984;7.964;2023-04-07T16:35:10;97230.16;;;18.40;48.48
43701;BME280;58809;47.984;7.964;2023-04-07T16:38:12;97233.63;;;20.62;45.00
43701;BME280;58809;47.984;7.964;2023-04-07T16:41:13;97234.25;;;21.64;42.82